Time;durP1;ratioP1;P1;durP2;ratioP2;P2;SDS_P1;SDS_P2;PMS_P1;PMS_P2;Temp;Humidity;BMP_temperature;BMP_pressure;BME280_temperature;BME280_humidity;BME280_pressure;Samples;Min_cycle;Max_cycle;Signal;HPM_P1;HPM_P2
2020/12/14 00:01:01;;;;;;;8.32;6.22;;;22.50;50.90;;;;;;5028885;28;45371;-64
2020/12/14 00:03:26;;;;;;;7.88;5.50;;;22.50;50.90;;;;;;5029386;28;45430;-64
2020/12/14 00:05:52;;;;;;;9.10;5.72;;;22.50;51.00;;;;;;5028629;28;45327;-64
2020/12/14 00:08:18;;;;;;;7.97;5.88;;;22.50;50.90;;;;;;5012429;28;45308;-64
2020/12/14 00:10:43;;;;;;;10.35;6.20;;;22.40;50.90;;;;;;5012501;28;45258;-64
2020/12/14 00:13:09;;;;;;;9.20;6.05;;;22.40;50.90;;;;;;5012972;28;45439;-64
2020/12/14 00:15:35;;;;;;;9.13;6.32;;;22.50;51.00;;;;;;5011843;28;45284;-64
2020/12/14 00:18:00;;;;;;;7.53;5.22;;;22.40;50.90;;;;;;5012003;28;45349;-64
2020/12/14 00:20:26;;;;;;;10.60;6.50;;;22.40;51.00;;;;;;5028974;28;45295;-64
2020/12/14 00:22:51;;;;;;;9.95;6.32;;;22.40;51.00;;;;;;5012593;28;45353;-63
2020/12/14 00:25:17;;;;;;;8.02;5.57;;;22.40;51.00;;;;;;5011649;28;45269;-64
2020/12/14 00:27:43;;;;;;;7.40;5.60;;;22.40;51.00;;;;;;5012149;28;45386;-64
2020/12/14 00:30:09;;;;;;;8.02;6.03;;;22.40;50.90;;;;;;5011705;28;45400;-64
2020/12/14 00:32:35;;;;;;;7.32;5.35;;;22.40;51.00;;;;;;5012466;28;45368;-65
2020/12/14 00:35:01;;;;;;;9.63;5.93;;;22.40;51.00;;;;;;5011747;28;46345;-64
2020/12/14 00:37:26;;;;;;;7.80;5.78;;;22.40;51.00;;;;;;5011877;28;45414;-66
2020/12/14 00:39:52;;;;;;;8.77;5.28;;;22.40;51.00;;;;;;5042884;28;45429;-65
2020/12/14 00:42:17;;;;;;;7.53;5.60;;;22.30;51.00;;;;;;5048685;28;45229;-63
2020/12/14 00:44:43;;;;;;;7.25;5.53;;;22.30;51.00;;;;;;5048482;28;45300;-64
2020/12/14 00:47:09;;;;;;;7.45;5.25;;;22.30;51.00;;;;;;5031917;28;45327;-64
2020/12/14 00:49:35;;;;;;;7.57;5.13;;;22.30;51.00;;;;;;5031638;28;45358;-64
2020/12/14 00:52:04;;;;;;;9.18;5.47;;;22.30;51.00;;;;;;5030664;28;45351;-64
2020/12/14 00:54:33;;;;;;;8.00;5.63;;;22.30;51.00;;;;;;5047946;28;46220;-64
2020/12/14 00:56:59;;;;;;;6.95;4.93;;;22.30;51.00;;;;;;5049116;28;45287;-64
2020/12/14 00:59:25;;;;;;;8.38;6.15;;;22.30;51.00;;;;;;5031539;28;45300;-64
2020/12/14 01:01:53;;;;;;;8.18;5.05;;;22.30;51.00;;;;;;5031865;28;45367;-65
2020/12/14 01:04:20;;;;;;;7.35;5.00;;;22.30;51.00;;;;;;5030912;28;45305;-64
2020/12/14 01:06:45;;;;;;;9.68;6.00;;;22.30;51.10;;;;;;5031220;28;45384;-64
2020/12/14 01:09:11;;;;;;;6.80;4.95;;;22.30;51.00;;;;;;5031329;28;45406;-64
2020/12/14 01:11:36;;;;;;;7.60;5.15;;;22.20;51.00;;;;;;5031753;28;45644;-64
2020/12/14 01:14:02;;;;;;;7.43;5.07;;;22.20;51.00;;;;;;5031076;28;45434;-64
2020/12/14 01:16:28;;;;;;;8.95;5.75;;;22.30;51.00;;;;;;5031094;28;45379;-64
2020/12/14 01:18:53;;;;;;;8.05;5.07;;;22.20;50.90;;;;;;5031245;28;45257;-63
2020/12/14 01:21:22;;;;;;;7.55;5.63;;;22.20;50.90;;;;;;5031382;28;45395;-64
2020/12/14 01:23:49;;;;;;;7.82;5.53;;;22.20;51.00;;;;;;5048713;28;46254;-66
2020/12/14 01:26:14;;;;;;;8.18;5.70;;;22.20;50.90;;;;;;5030971;28;45372;-63
2020/12/14 01:28:40;;;;;;;6.70;4.85;;;22.20;51.00;;;;;;5030938;28;45471;-63
2020/12/14 01:31:05;;;;;;;7.38;5.25;;;22.20;51.00;;;;;;5031491;28;45596;-64
2020/12/14 01:33:31;;;;;;;7.50;4.88;;;22.20;50.90;;;;;;5030899;28;45957;-64
2020/12/14 01:35:57;;;;;;;6.53;5.00;;;22.20;51.00;;;;;;5030030;28;45336;-64
2020/12/14 01:38:22;;;;;;;7.57;4.57;;;22.20;51.00;;;;;;5030796;28;45373;-64
2020/12/14 01:40:48;;;;;;;7.97;5.63;;;22.10;50.90;;;;;;5031367;28;45497;-64
2020/12/14 01:43:14;;;;;;;7.60;4.88;;;22.20;50.90;;;;;;5048523;28;46157;-64
2020/12/14 01:45:39;;;;;;;6.95;5.18;;;22.20;50.90;;;;;;5030406;28;45356;-64
2020/12/14 01:48:06;;;;;;;6.10;4.70;;;22.10;50.90;;;;;;5047460;28;45397;-64
2020/12/14 01:50:32;;;;;;;5.93;4.80;;;22.20;51.50;;;;;;5031286;28;45554;-63
2020/12/14 01:53:01;;;;;;;7.85;5.47;;;22.10;50.90;;;;;;5029963;28;46103;-64
2020/12/14 01:55:31;;;;;;;7.57;5.10;;;22.10;50.90;;;;;;5031056;28;45506;-63
2020/12/14 01:57:57;;;;;;;8.60;5.50;;;22.10;50.90;;;;;;5048567;28;45288;-64
2020/12/14 02:00:23;;;;;;;7.28;5.47;;;22.10;50.80;;;;;;5030808;28;45375;-64
2020/12/14 02:02:48;;;;;;;7.93;4.93;;;22.10;50.80;;;;;;5030200;28;45450;-64
2020/12/14 02:05:14;;;;;;;7.22;4.80;;;22.10;50.80;;;;;;5030375;28;45430;-64
2020/12/14 02:07:39;;;;;;;6.20;4.55;;;22.00;50.80;;;;;;5030626;28;45316;-64
2020/12/14 02:10:05;;;;;;;6.28;4.72;;;22.10;50.80;;;;;;5047505;28;45328;-64
2020/12/14 02:12:31;;;;;;;6.03;4.63;;;22.10;50.80;;;;;;5046872;28;46353;-63
2020/12/14 02:14:57;;;;;;;6.80;4.65;;;22.10;50.80;;;;;;5030414;28;45501;-63
2020/12/14 02:17:24;;;;;;;7.45;5.10;;;22.00;50.80;;;;;;5030199;28;45377;-63
2020/12/14 02:19:50;;;;;;;6.65;5.05;;;22.00;50.80;;;;;;5030854;28;45344;-63
2020/12/14 02:22:19;;;;;;;7.68;4.72;;;22.00;50.70;;;;;;5030002;28;47309;-63
2020/12/14 02:24:55;;;;;;;7.28;5.25;;;22.10;50.80;;;;;;5046519;28;45398;-63
2020/12/14 02:27:22;;;;;;;7.03;5.00;;;22.10;50.80;;;;;;5046915;28;45246;-63
2020/12/14 02:29:47;;;;;;;6.47;4.63;;;22.00;50.80;;;;;;5030080;28;45574;-63
2020/12/14 02:32:15;;;;;;;6.45;4.82;;;22.00;50.80;;;;;;5029605;28;45493;-64
2020/12/14 02:34:40;;;;;;;6.18;4.43;;;22.00;50.80;;;;;;5030038;28;45259;-63
2020/12/14 02:37:10;;;;;;;5.93;4.28;;;22.00;50.80;;;;;;5046744;28;45343;-63
2020/12/14 02:39:37;;;;;;;5.97;4.55;;;22.00;50.80;;;;;;5018339;28;45602;-64
2020/12/14 02:42:07;;;;;;;8.48;4.75;;;22.00;50.80;;;;;;5009879;28;47066;-65
2020/12/14 02:44:33;;;;;;;7.07;4.45;;;22.00;50.80;;;;;;5027663;28;45403;-65
2020/12/14 02:46:59;;;;;;;6.88;4.72;;;22.00;50.80;;;;;;5010615;28;45364;-64
2020/12/14 02:49:24;;;;;;;8.27;5.10;;;22.00;50.80;;;;;;5013933;28;45523;-65
2020/12/14 02:51:50;;;;;;;6.40;4.78;;;22.00;50.80;;;;;;5013324;28;47069;-65
2020/12/14 02:54:15;;;;;;;6.95;4.72;;;21.90;50.70;;;;;;5013475;28;45321;-64
2020/12/14 02:56:43;;;;;;;6.13;4.28;;;21.90;50.70;;;;;;5013472;28;45633;-64
2020/12/14 02:59:12;;;;;;;7.35;5.47;;;21.90;50.70;;;;;;5014208;28;45541;-63
2020/12/14 03:01:38;;;;;;;6.40;4.82;;;21.90;50.70;;;;;;5029828;28;47177;-65
2020/12/14 03:04:04;;;;;;;7.15;4.90;;;21.90;50.70;;;;;;5014043;28;45419;-65
2020/12/14 03:06:29;;;;;;;5.57;4.35;;;21.90;50.60;;;;;;5013512;28;45397;-65
2020/12/14 03:08:55;;;;;;;6.72;4.90;;;22.00;50.70;;;;;;5030342;28;45394;-65
2020/12/14 03:11:21;;;;;;;6.85;4.22;;;22.00;50.60;;;;;;5013363;28;45392;-65
2020/12/14 03:13:46;;;;;;;7.65;5.25;;;22.10;50.50;;;;;;5012841;28;45454;-65
2020/12/14 03:16:12;;;;;;;6.18;4.65;;;22.10;50.30;;;;;;5013251;28;45509;-65
2020/12/14 03:18:37;;;;;;;6.55;4.22;;;22.20;50.30;;;;;;5013655;28;45340;-65
2020/12/14 03:21:07;;;;;;;6.55;4.32;;;22.20;50.20;;;;;;5012748;28;46197;-65
2020/12/14 03:23:33;;;;;;;6.43;4.50;;;22.20;50.10;;;;;;5013048;28;45268;-65
2020/12/14 03:25:58;;;;;;;6.43;4.13;;;22.20;50.00;;;;;;5013154;28;45456;-65
2020/12/14 03:28:24;;;;;;;6.78;4.72;;;22.30;50.00;;;;;;5029337;28;45501;-65
2020/12/14 03:30:49;;;;;;;6.15;4.50;;;22.30;49.90;;;;;;5029200;28;45710;-64
2020/12/14 03:33:15;;;;;;;6.70;4.63;;;22.30;49.90;;;;;;5029574;28;45348;-64
2020/12/14 03:35:41;;;;;;;6.43;3.90;;;22.40;49.80;;;;;;5012985;28;45277;-64
2020/12/14 03:38:06;;;;;;;4.75;3.83;;;22.30;49.80;;;;;;5013073;28;45311;-64
2020/12/14 03:40:32;;;;;;;6.25;4.32;;;22.30;49.80;;;;;;5032441;28;46030;-64
2020/12/14 03:42:58;;;;;;;6.50;4.70;;;22.40;49.90;;;;;;5049247;28;45343;-64
2020/12/14 03:45:23;;;;;;;5.75;4.13;;;22.40;49.70;;;;;;5032507;28;45397;-64
2020/12/14 03:47:49;;;;;;;6.30;3.90;;;22.40;49.60;;;;;;5033320;28;45189;-65
2020/12/14 03:50:14;;;;;;;5.97;3.75;;;22.40;49.60;;;;;;5032487;28;45524;-64
2020/12/14 03:52:40;;;;;;;5.63;3.45;;;22.50;49.70;;;;;;5049141;28;45443;-64
2020/12/14 03:55:06;;;;;;;5.38;3.88;;;22.50;49.70;;;;;;5032529;28;45268;-64
2020/12/14 03:57:31;;;;;;;4.80;3.38;;;22.50;49.50;;;;;;5032908;28;45364;-64
2020/12/14 03:59:57;;;;;;;5.65;3.97;;;22.60;49.50;;;;;;5031876;28;46178;-65
2020/12/14 04:02:23;;;;;;;4.97;3.33;;;22.60;49.50;;;;;;5032162;28;45379;-64
2020/12/14 04:04:49;;;;;;;5.28;3.92;;;22.70;49.50;;;;;;5032564;28;45312;-65
2020/12/14 04:07:15;;;;;;;4.28;3.10;;;22.60;49.40;;;;;;5032767;28;45606;-65
2020/12/14 04:09:41;;;;;;;5.80;3.92;;;22.60;49.30;;;;;;5031842;28;47076;-65
2020/12/14 04:12:07;;;;;;;4.82;3.80;;;22.70;49.30;;;;;;5049147;28;45351;-64
2020/12/14 04:14:33;;;;;;;4.90;3.15;;;22.70;49.30;;;;;;5032285;28;45350;-65
2020/12/14 04:16:58;;;;;;;5.70;3.85;;;22.70;49.20;;;;;;5032469;28;45597;-65
2020/12/14 04:19:24;;;;;;;5.78;4.13;;;22.80;49.20;;;;;;5032151;28;46566;-68
2020/12/14 04:21:50;;;;;;;5.13;3.58;;;22.80;49.20;;;;;;5027471;28;45381;-66
2020/12/14 04:24:17;;;;;;;6.10;4.03;;;22.80;49.10;;;;;;5028622;28;45404;-65
2020/12/14 04:26:42;;;;;;;5.13;3.65;;;22.80;49.10;;;;;;5028992;28;45276;-65
2020/12/14 04:29:08;;;;;;;5.43;3.58;;;22.80;49.10;;;;;;5027946;28;47004;-65
2020/12/14 04:31:34;;;;;;;5.47;3.50;;;22.80;49.00;;;;;;5028520;28;45328;-65
2020/12/14 04:34:00;;;;;;;5.13;3.60;;;22.80;49.00;;;;;;5028439;28;45273;-65
2020/12/14 04:36:26;;;;;;;5.07;3.80;;;22.90;49.00;;;;;;5029519;28;46752;-65
2020/12/14 04:38:52;;;;;;;5.25;3.90;;;22.90;49.00;;;;;;5031447;28;46062;-64
2020/12/14 04:41:22;;;;;;;5.13;3.40;;;22.90;48.90;;;;;;5031431;28;45451;-64
2020/12/14 04:43:51;;;;;;;5.47;3.58;;;22.90;48.90;;;;;;5032130;28;45383;-64
2020/12/14 04:46:20;;;;;;;5.20;2.95;;;22.90;48.90;;;;;;5032178;28;45379;-65
2020/12/14 04:48:46;;;;;;;6.00;3.55;;;22.90;48.80;;;;;;5031415;28;47004;-64
2020/12/14 04:51:11;;;;;;;4.53;3.28;;;22.90;48.80;;;;;;5031283;28;45666;-64
2020/12/14 04:53:40;;;;;;;4.93;3.20;;;23.00;48.70;;;;;;5031378;28;45288;-64
2020/12/14 04:56:06;;;;;;;5.35;3.55;;;23.00;48.70;;;;;;5048764;28;45343;-64
2020/12/14 04:58:31;;;;;;;5.43;3.45;;;23.00;48.70;;;;;;5027260;28;45389;-65
2020/12/14 05:00:57;;;;;;;5.00;3.78;;;23.00;48.70;;;;;;5018456;28;45361;-65
2020/12/14 05:03:22;;;;;;;5.05;3.47;;;23.10;48.70;;;;;;5021321;28;45518;-64
2020/12/14 05:05:55;;;;;;;5.05;3.28;;;23.10;48.60;;;;;;5031664;28;45303;-64
2020/12/14 05:08:25;;;;;;;4.65;3.33;;;23.10;48.60;;;;;;5018416;28;46985;-64
2020/12/14 05:10:50;;;;;;;4.95;3.40;;;23.10;48.50;;;;;;5027169;28;45392;-65
2020/12/14 05:13:16;;;;;;;4.70;3.25;;;23.10;48.50;;;;;;5017112;28;45336;-64
2020/12/14 05:15:42;;;;;;;4.20;3.10;;;23.10;48.50;;;;;;5018064;28;45594;-65
2020/12/14 05:18:11;;;;;;;5.10;3.47;;;23.10;48.50;;;;;;5041559;28;45524;-65
2020/12/14 05:20:37;;;;;;;4.38;3.10;;;23.10;48.40;;;;;;5037165;28;45389;-65
2020/12/14 05:23:11;;;;;;;4.88;3.00;;;23.20;48.50;;;;;;5028620;28;45366;-65
2020/12/14 05:25:37;;;;;;;;;;;23.20;48.40;;;;;;5045124;28;45411;-65
2020/12/14 05:28:04;;;;;;;5.57;3.08;;;23.10;48.30;;;;;;5027751;28;45442;-65
2020/12/14 05:30:37;;;;;;;6.00;3.33;;;23.20;48.50;;;;;;5027052;28;45285;-65
2020/12/14 05:33:04;;;;;;;4.15;3.10;;;23.20;48.40;;;;;;5027632;28;45238;-65
2020/12/14 05:35:34;;;;;;;5.13;3.15;;;23.20;48.40;;;;;;5027933;28;45245;-65
2020/12/14 05:38:16;;;;;;;5.22;2.97;;;23.20;48.30;;;;;;5029549;28;46813;-65
2020/12/14 05:40:43;;;;;;;4.47;3.10;;;23.30;48.30;;;;;;5031249;28;45241;-65
2020/12/14 05:43:13;;;;;;;5.03;3.25;;;23.30;48.30;;;;;;5030373;28;45335;-65
2020/12/14 05:45:39;;;;;;;4.65;2.75;;;23.30;48.30;;;;;;5029762;28;45393;-65
2020/12/14 05:48:06;;;;;;;5.10;3.40;;;23.30;48.30;;;;;;5010828;28;47031;-65
2020/12/14 05:50:31;;;;;;;6.32;4.60;;;23.30;48.30;;;;;;5019922;28;45227;-66
2020/12/14 05:52:58;;;;;;;9.20;7.63;;;23.30;48.20;;;;;;5044011;28;45307;-66
2020/12/14 05:55:24;;;;;;;11.55;8.95;;;23.40;48.10;;;;;;5044354;28;45465;-65
2020/12/14 05:57:50;;;;;;;9.55;7.63;;;23.40;48.00;;;;;;5042246;28;46100;-65
2020/12/14 06:00:16;;;;;;;9.77;8.13;;;23.40;48.00;;;;;;5012896;28;45359;-66
2020/12/14 06:02:42;;;;;;;13.55;7.93;;;23.30;47.90;;;;;;5027040;28;45392;-65
2020/12/14 06:05:08;;;;;;;11.27;6.95;;;23.40;47.50;;;;;;5027707;28;45353;-65
2020/12/14 06:07:34;;;;;;;11.75;8.02;;;23.30;47.30;;;;;;5029893;28;46075;-66
2020/12/14 06:10:07;;;;;;;11.23;7.30;;;23.40;47.20;;;;;;5020295;28;45427;-66
2020/12/14 06:12:33;;;;;;;11.40;7.53;;;23.40;46.90;;;;;;5035601;28;45349;-66
2020/12/14 06:15:19;;;;;;;11.68;7.30;;;23.40;47.00;;;;;;5035341;28;45789;-64
2020/12/14 06:17:45;;;;;;;9.73;6.65;;;23.40;47.00;;;;;;5038999;28;46983;-65
2020/12/14 06:20:20;;;;;;;12.85;6.75;;;23.40;46.90;;;;;;5035003;28;45407;-64
2020/12/14 06:23:06;;;;;;;11.10;6.70;;;23.40;46.90;;;;;;5017892;28;45360;-57
2020/12/14 06:25:32;;;;;;;9.80;5.93;;;23.50;47.00;;;;;;5046859;28;45589;-58
2020/12/14 06:28:30;;;;;;;8.93;5.68;;;23.50;47.00;;;;;;5057932;28;46105;-58
2020/12/14 06:30:56;;;;;;;13.07;5.97;;;23.60;47.00;;;;;;5040125;28;45428;-56
2020/12/14 06:33:38;;;;;;;12.82;5.72;;;23.60;47.10;;;;;;5030040;28;45358;-56
2020/12/14 06:36:17;;;;;;;10.57;6.35;;;23.60;46.90;;;;;;5032379;28;45536;-58
2020/12/14 06:38:43;;;;;;;14.00;6.35;;;23.60;47.00;;;;;;5044353;28;46315;-56
2020/12/14 06:41:18;;;;;;;15.52;6.28;;;23.60;47.60;;;;;;5032054;28;45272;-56
2020/12/14 06:43:45;;;;;;;10.93;6.18;;;23.70;47.00;;;;;;5046088;28;45459;-57
2020/12/14 06:46:10;;;;;;;11.02;6.30;;;23.70;47.10;;;;;;5010298;28;45254;-58
2020/12/14 06:48:46;;;;;;;18.13;6.82;;;23.60;47.10;;;;;;5026212;28;46242;-58
2020/12/14 06:51:13;;;;;;;11.57;7.00;;;23.70;47.00;;;;;;5031618;28;45409;-58
2020/12/14 06:53:50;;;;;;;15.85;7.90;;;23.70;46.90;;;;;;5009671;28;45324;-57
2020/12/14 06:56:17;;;;;;;11.82;6.60;;;23.70;46.60;;;;;;5010359;28;45396;-56
2020/12/14 06:58:46;;;;;;;15.13;6.88;;;23.70;46.60;;;;;;5025836;28;46270;-56
2020/12/14 07:01:32;;;;;;;12.20;6.88;;;23.70;46.60;;;;;;5045950;28;45465;-55
2020/12/14 07:03:58;;;;;;;13.30;8.10;;;23.70;46.30;;;;;;5034635;28;45319;-57
2020/12/14 07:06:27;;;;;;;11.98;7.13;;;23.70;46.40;;;;;;5024428;28;45429;-61
2020/12/14 07:08:53;;;;;;;10.93;7.43;;;23.70;46.50;;;;;;5039744;28;45938;-63
2020/12/14 07:11:19;;;;;;;12.43;7.75;;;23.70;46.40;;;;;;5028816;28;45343;-62
2020/12/14 07:13:45;;;;;;;14.73;7.97;;;23.80;46.10;;;;;;5060502;28;45656;-62
2020/12/14 07:16:12;;;;;;;13.07;7.78;;;23.80;46.00;;;;;;5029897;28;45166;-60
2020/12/14 07:18:39;;;;;;;12.63;7.53;;;23.80;46.40;;;;;;5027964;28;45757;-63
2020/12/14 07:21:17;;;;;;;15.18;7.82;;;23.90;46.40;;;;;;5027758;28;45443;-64
2020/12/14 07:23:46;;;;;;;12.75;7.32;;;24.00;46.50;;;;;;5044142;28;45415;-66
2020/12/14 07:26:15;;;;;;;14.40;7.63;;;23.90;46.40;;;;;;5053956;28;45369;-66
2020/12/14 07:28:49;;;;;;;18.45;8.85;;;23.90;46.50;;;;;;5041189;28;46347;-67
2020/12/14 07:31:19;;;;;;;15.25;7.97;;;23.90;46.50;;;;;;5026401;28;45427;-66
2020/12/14 07:33:57;;;;;;;14.57;8.80;;;23.90;46.50;;;;;;5027000;28;45389;-66
2020/12/14 07:36:24;;;;;;;15.73;9.20;;;23.90;46.40;;;;;;5037604;28;45824;-66
2020/12/14 07:38:51;;;;;;;12.70;7.60;;;23.90;46.40;;;;;;5028407;28;45327;-66
2020/12/14 07:41:17;;;;;;;17.42;8.98;;;23.90;46.30;;;;;;5028631;28;45344;-67
2020/12/14 07:43:50;;;;;;;14.25;7.70;;;24.00;46.20;;;;;;5013097;28;45365;-66
2020/12/14 07:46:26;;;;;;;13.80;8.43;;;24.00;46.00;;;;;;5029353;28;45517;-63
2020/12/14 07:48:59;;;;;;;12.88;8.85;;;24.00;45.70;;;;;;5028477;28;46358;-63
2020/12/14 07:51:28;;;;;;;11.30;8.18;;;23.90;44.90;;;;;;5028590;28;45375;-63
2020/12/14 07:54:04;;;;;;;12.02;8.38;;;24.00;45.10;;;;;;5012546;28;45480;-63
2020/12/14 07:56:30;;;;;;;10.55;7.68;;;24.00;45.10;;;;;;5029437;28;45229;-59
2020/12/14 07:58:55;;;;;;;13.95;7.00;;;24.00;45.10;;;;;;5014826;28;46920;-61
2020/12/14 08:01:22;;;;;;;18.52;8.57;;;24.10;45.20;;;;;;5032062;28;45337;-60
2020/12/14 08:03:48;;;;;;;12.70;8.45;;;24.10;45.10;;;;;;5036201;28;45736;-62
2020/12/14 08:06:18;;;;;;;13.40;8.48;;;24.20;45.00;;;;;;5032344;28;45506;-61
2020/12/14 08:08:47;;;;;;;13.00;9.15;;;24.10;44.40;;;;;;5021379;28;46520;-58
2020/12/14 08:11:12;;;;;;;12.13;8.30;;;24.10;43.10;;;;;;5048392;28;45369;-60
2020/12/14 08:13:38;;;;;;;13.18;8.82;;;24.00;43.60;;;;;;5029898;28;45341;-61
2020/12/14 08:16:04;;;;;;;12.02;8.45;;;24.00;43.20;;;;;;5028299;28;45776;-59
2020/12/14 08:18:30;;;;;;;13.65;8.15;;;24.10;43.10;;;;;;5027768;28;47136;-57
2020/12/14 08:20:56;;;;;;;11.32;8.13;;;24.10;43.40;;;;;;5036434;28;45373;-56
2020/12/14 08:23:26;;;;;;;12.02;8.82;;;24.10;43.40;;;;;;5051725;28;45487;-56
2020/12/14 08:25:52;;;;;;;11.20;8.95;;;23.90;41.50;;;;;;5052076;28;45268;-60
2020/12/14 08:28:34;;;;;;;13.52;8.65;;;23.90;42.40;;;;;;5050959;28;46224;-57
2020/12/14 08:31:00;;;;;;;13.48;8.48;;;24.00;42.70;;;;;;5051444;28;45700;-60
2020/12/14 08:33:26;;;;;;;12.55;7.90;;;24.00;43.50;;;;;;5059927;28;45457;-63
2020/12/14 08:35:53;;;;;;;14.57;8.30;;;24.10;43.60;;;;;;5031027;28;45411;-60
2020/12/14 08:38:23;;;;;;;13.07;6.82;;;24.10;44.00;;;;;;5028629;28;45717;-60
2020/12/14 08:41:02;;;;;;;12.35;7.22;;;24.10;44.20;;;;;;5032674;28;45336;-61
2020/12/14 08:43:28;;;;;;;14.07;7.15;;;24.20;44.70;;;;;;5048855;28;45318;-61
2020/12/14 08:46:08;;;;;;;11.13;7.25;;;24.20;44.50;;;;;;5068425;28;45386;-62
2020/12/14 08:48:46;;;;;;;10.93;7.25;;;24.20;44.50;;;;;;5051677;28;46472;-59
2020/12/14 08:51:25;;;;;;;12.15;7.93;;;24.20;44.40;;;;;;5039592;28;45313;-61
2020/12/14 08:53:51;;;;;;;13.60;7.10;;;24.20;44.90;;;;;;5036298;28;45454;-58
2020/12/14 08:56:18;;;;;;;11.43;6.40;;;24.30;45.10;;;;;;5045410;28;45385;-62
2020/12/14 08:58:49;;;;;;;10.60;7.05;;;24.30;45.20;;;;;;5047065;28;45914;-63
2020/12/14 09:01:15;;;;;;;10.90;6.95;;;24.20;45.50;;;;;;5068136;28;45371;-59
2020/12/14 09:03:55;;;;;;;9.68;7.25;;;24.20;45.30;;;;;;5037254;28;45291;-60
2020/12/14 09:06:28;;;;;;;10.52;7.00;;;24.20;45.30;;;;;;5041597;28;45650;-60
2020/12/14 09:08:57;;;;;;;9.55;7.20;;;24.20;45.30;;;;;;5035282;28;47114;-58
2020/12/14 09:11:23;;;;;;;10.93;6.80;;;24.20;45.40;;;;;;5040727;28;45366;-54
2020/12/14 09:13:49;;;;;;;12.18;7.22;;;24.20;45.30;;;;;;5029932;28;45469;-58
2020/12/14 09:16:17;;;;;;;11.20;6.72;;;24.20;45.20;;;;;;5026784;28;45312;-58
2020/12/14 09:18:44;;;;;;;10.43;7.03;;;24.10;45.30;;;;;;5028323;28;46134;-54
2020/12/14 09:21:09;;;;;;;10.95;7.45;;;24.10;45.20;;;;;;5054422;28;45386;-58
2020/12/14 09:23:35;;;;;;;8.95;7.30;;;24.10;45.30;;;;;;5052047;28;45605;-57
2020/12/14 09:26:01;;;;;;;10.32;7.95;;;24.10;45.30;;;;;;5031520;28;45834;-52
2020/12/14 09:28:26;;;;;;;10.75;8.27;;;24.00;46.10;;;;;;5019683;28;45699;-57
2020/12/14 09:30:52;;;;;;;10.30;8.20;;;24.00;46.00;;;;;;5020645;28;45648;-57
2020/12/14 09:33:18;;;;;;;11.48;9.13;;;24.10;46.30;;;;;;5010156;28;45298;-57
2020/12/14 09:35:43;;;;;;;13.73;8.63;;;24.00;46.20;;;;;;5010722;28;45440;-57
2020/12/14 09:38:09;;;;;;;16.50;9.75;;;23.90;46.70;;;;;;5009512;28;46104;-57
2020/12/14 09:40:34;;;;;;;12.77;10.00;;;23.90;46.80;;;;;;5024466;28;45341;-56
2020/12/14 09:43:01;;;;;;;12.98;10.15;;;23.80;46.40;;;;;;5046982;28;45383;-58
2020/12/14 09:45:27;;;;;;;12.90;9.80;;;23.80;45.90;;;;;;5030085;28;45289;-56
2020/12/14 09:47:52;;;;;;;14.20;11.88;;;23.70;45.60;;;;;;5045896;28;46422;-57
2020/12/14 09:50:19;;;;;;;22.23;14.18;;;23.70;45.80;;;;;;5019116;28;45505;-56
2020/12/14 09:52:44;;;;;;;30.35;22.02;;;23.70;45.90;;;;;;5026882;28;45657;-57
2020/12/14 09:55:12;;;;;;;34.42;27.58;;;23.60;45.30;;;;;;5026922;28;45545;-55
2020/12/14 09:57:38;;;;;;;42.40;37.80;;;23.50;44.00;;;;;;5009664;28;45641;-56
2020/12/14 10:00:03;;;;;;;39.42;33.95;;;23.40;43.20;;;;;;5026145;28;45780;-54
2020/12/14 10:02:29;;;;;;;32.97;29.25;;;23.40;43.50;;;;;;5045809;28;45430;-56
2020/12/14 10:04:55;;;;;;;31.40;28.02;;;23.30;43.30;;;;;;5045472;28;45632;-56
2020/12/14 10:07:20;;;;;;;28.27;25.25;;;23.30;42.40;;;;;;5045538;28;45379;-57
2020/12/14 10:09:46;;;;;;;28.30;25.30;;;23.30;42.10;;;;;;5019104;28;45637;-57
2020/12/14 10:12:11;;;;;;;24.33;21.75;;;23.30;42.50;;;;;;5026720;28;45427;-59
2020/12/14 10:14:37;;;;;;;25.00;22.30;;;23.30;41.90;;;;;;5022049;28;45382;-55
2020/12/14 10:17:03;;;;;;;27.20;24.50;;;23.20;42.50;;;;;;5023419;28;45323;-59
2020/12/14 10:19:29;;;;;;;29.00;24.75;;;23.20;43.20;;;;;;5044922;28;45443;-58
2020/12/14 10:21:55;;;;;;;29.67;26.58;;;23.20;43.50;;;;;;5029316;28;45407;-59
2020/12/14 10:24:20;;;;;;;32.25;28.90;;;23.20;43.50;;;;;;5039417;28;45492;-59
2020/12/14 10:26:49;;;;;;;33.30;29.88;;;23.20;43.50;;;;;;5009174;28;45435;-59
2020/12/14 10:29:17;;;;;;;34.50;30.85;;;23.20;43.40;;;;;;5044202;28;45272;-58
2020/12/14 10:31:48;;;;;;;39.15;35.40;;;23.20;43.60;;;;;;5065494;28;45338;-59
2020/12/14 10:34:14;;;;;;;41.00;36.67;;;23.20;43.60;;;;;;5052053;28;45478;-58
2020/12/14 10:36:44;;;;;;;45.17;40.55;;;23.20;43.90;;;;;;5020213;28;46372;-57
2020/12/14 10:39:09;;;;;;;52.30;34.08;;;23.10;43.40;;;;;;5045685;28;45530;-56
2020/12/14 10:41:35;;;;;;;78.40;60.65;;;22.90;41.80;;;;;;5042322;28;45462;-57
2020/12/14 10:44:01;;;;;;;93.28;73.53;;;22.90;41.60;;;;;;5026318;28;45384;-56
2020/12/14 10:46:26;;;;;;;86.50;72.30;;;22.80;41.10;;;;;;5026404;28;45593;-56
2020/12/14 10:48:52;;;;;;;114.32;99.05;;;22.80;41.00;;;;;;5042670;28;45386;-56
2020/12/14 10:51:17;;;;;;;180.50;157.05;;;22.80;41.60;;;;;;5029494;28;45296;-57
2020/12/14 10:53:43;;;;;;;205.75;184.27;;;22.80;42.20;;;;;;5029953;28;45446;-57
2020/12/14 10:56:09;;;;;;;245.02;218.52;;;22.90;42.80;;;;;;5029269;28;46051;-56
2020/12/14 10:58:34;;;;;;;240.50;214.52;;;22.90;43.50;;;;;;5029204;28;45449;-56
2020/12/14 11:01:00;;;;;;;218.50;194.55;;;22.90;44.00;;;;;;5029200;28;45440;-59
2020/12/14 11:03:25;;;;;;;200.77;169.77;;;23.00;44.60;;;;;;5038424;28;45252;-55
2020/12/14 11:05:53;;;;;;;153.20;136.32;;;23.00;44.80;;;;;;5015479;28;47315;-56
2020/12/14 11:08:19;;;;;;;112.93;97.20;;;22.80;44.40;;;;;;5041123;28;45410;-55
2020/12/14 11:10:44;;;;;;;75.88;64.13;;;22.60;43.30;;;;;;5029465;28;45317;-59
2020/12/14 11:13:10;;;;;;;60.88;51.72;;;22.40;40.80;;;;;;5041580;28;45577;-58
2020/12/14 11:15:35;;;;;;;62.92;52.72;;;22.30;41.00;;;;;;5012655;28;46132;-59
2020/12/14 11:18:01;;;;;;;73.18;64.97;;;22.30;41.60;;;;;;5029015;28;45357;-59
2020/12/14 11:20:27;;;;;;;97.53;85.72;;;22.30;42.80;;;;;;5014770;28;45658;-58
2020/12/14 11:22:52;;;;;;;100.07;85.25;;;22.40;43.90;;;;;;5048254;28;45360;-57
2020/12/14 11:25:18;;;;;;;82.78;70.38;;;22.40;44.30;;;;;;5052387;28;45379;-55
2020/12/14 11:27:44;;;;;;;82.07;73.18;;;22.40;44.40;;;;;;5042810;28;45391;-54
2020/12/14 11:30:09;;;;;;;77.85;65.05;;;22.40;44.60;;;;;;5024947;28;45392;-57
2020/12/14 11:32:35;;;;;;;75.22;63.75;;;22.50;44.80;;;;;;5032011;28;45537;-56
2020/12/14 11:35:01;;;;;;;75.18;59.67;;;22.50;44.80;;;;;;5012508;28;46193;-56
2020/12/14 11:37:26;;;;;;;63.00;54.50;;;22.60;45.10;;;;;;5059339;28;45430;-54
2020/12/14 11:39:52;;;;;;;55.17;43.28;;;22.70;45.10;;;;;;5022739;28;45466;-53
2020/12/14 11:42:17;;;;;;;46.60;37.92;;;22.90;45.00;;;;;;5040808;28;45606;-52
2020/12/14 11:44:43;;;;;;;42.75;34.30;;;23.10;45.20;;;;;;5012257;28;46029;-54
2020/12/14 11:47:09;;;;;;;37.25;31.25;;;23.20;45.20;;;;;;5036410;28;45458;-52
2020/12/14 11:49:34;;;;;;;28.65;23.77;;;23.20;44.90;;;;;;5022799;28;45564;-52
2020/12/14 11:52:01;;;;;;;29.65;23.42;;;22.80;40.10;;;;;;5019387;28;45332;-52
2020/12/14 11:54:27;;;;;;;36.40;28.50;;;22.60;40.40;;;;;;5018086;28;46167;-55
2020/12/14 11:56:53;;;;;;;40.95;32.50;;;22.70;42.30;;;;;;5019758;28;45821;-51
2020/12/14 11:59:18;;;;;;;41.38;31.20;;;22.80;43.40;;;;;;5029889;28;45517;-54
2020/12/14 12:01:44;;;;;;;33.60;27.27;;;22.90;43.90;;;;;;5027795;28;45434;-53
2020/12/14 12:04:10;;;;;;;37.38;27.83;;;22.90;44.50;;;;;;5026943;28;46266;-53
2020/12/14 12:06:35;;;;;;;39.08;29.95;;;23.00;44.30;;;;;;5043796;28;45561;-56
2020/12/14 12:09:01;;;;;;;33.85;28.65;;;23.10;45.10;;;;;;5034836;28;45437;-60
2020/12/14 12:11:27;;;;;;;34.25;29.10;;;23.10;45.20;;;;;;5045620;28;45839;-60
2020/12/14 12:13:52;;;;;;;30.70;24.67;;;23.10;45.20;;;;;;5022650;28;45467;-56
2020/12/14 12:16:18;;;;;;;30.00;22.13;;;23.10;45.30;;;;;;5024325;28;45482;-55
2020/12/14 12:18:48;;;;;;;35.00;23.17;;;23.20;45.10;;;;;;5024063;28;45574;-54
2020/12/14 12:21:14;;;;;;;24.27;19.13;;;23.20;45.40;;;;;;5040277;28;45517;-57
2020/12/14 12:23:40;;;;;;;24.33;17.27;;;23.30;45.30;;;;;;5024768;28;47185;-54
2020/12/14 12:26:06;;;;;;;18.10;13.93;;;23.50;45.30;;;;;;5032335;28;45540;-53
2020/12/14 12:28:31;;;;;;;22.77;17.73;;;23.50;45.10;;;;;;5029795;28;45506;-54
2020/12/14 12:30:57;;;;;;;25.58;19.45;;;23.50;45.10;;;;;;5036401;28;45340;-55
2020/12/14 12:33:23;;;;;;;23.95;18.40;;;23.50;45.30;;;;;;5043462;28;45972;-54
2020/12/14 12:35:48;;;;;;;16.48;14.10;;;23.40;45.40;;;;;;5031252;28;45374;-57
2020/12/14 12:38:14;;;;;;;24.25;17.10;;;23.40;45.50;;;;;;5048092;28;45333;-56